createdAt,value
2022-12-28T00:01:31.425Z,-1.03
2022-12-28T00:04:03.232Z,-1.04
2022-12-28T00:06:30.238Z,-1.11
2022-12-28T00:08:57.815Z,-1.16
2022-12-28T00:11:30.830Z,-1.19
2022-12-28T00:14:01.514Z,-1.18
2022-12-28T00:16:31.116Z,-1.13
2022-12-28T00:18:59.608Z,-1.11
2022-12-28T00:21:27.317Z,-1.18
2022-12-28T00:23:57.940Z,-1.22
2022-12-28T00:26:26.433Z,-1.26
2022-12-28T00:28:56.855Z,-1.30
2022-12-28T00:31:28.431Z,-1.36
2022-12-28T00:33:55.150Z,-1.38
2022-12-28T00:36:21.878Z,-1.43
2022-12-28T00:38:48.509Z,-1.46
2022-12-28T00:41:15.137Z,-1.50
2022-12-28T00:43:41.726Z,-1.51
2022-12-28T00:46:08.654Z,-1.51
2022-12-28T00:48:35.352Z,-1.52
2022-12-28T00:51:07.829Z,-1.53
2022-12-28T00:53:34.970Z,-1.56
2022-12-28T00:56:16.367Z,-1.54
2022-12-28T00:58:43.703Z,-1.55
2022-12-28T01:01:22.241Z,-1.56
2022-12-28T01:03:49.481Z,-1.59
2022-12-28T01:06:18.506Z,-1.59
2022-12-28T01:08:45.102Z,-1.59
2022-12-28T01:11:20.819Z,-1.60
2022-12-28T01:13:49.082Z,-1.59
2022-12-28T01:16:30.946Z,-1.56
2022-12-28T01:18:59.809Z,-1.56
2022-12-28T01:21:29.755Z,-1.59
2022-12-28T01:24:00.627Z,-1.63
2022-12-28T01:26:28.206Z,-1.65
2022-12-28T01:28:55.010Z,-1.67
2022-12-28T01:31:22.096Z,-1.73
2022-12-28T01:33:49.323Z,-1.73
2022-12-28T01:36:19.894Z,-1.72
2022-12-28T01:38:47.113Z,-1.71
2022-12-28T01:41:16.759Z,-1.71
2022-12-28T01:44:07.971Z,-1.71
2022-12-28T01:46:39.968Z,-1.72
2022-12-28T01:49:20.229Z,-1.73
2022-12-28T01:52:10.029Z,-1.73
2022-12-28T01:54:45.372Z,-1.73
2022-12-28T01:57:14.197Z,-1.76
2022-12-28T01:59:43.629Z,-1.74
2022-12-28T02:02:12.399Z,-1.73
2022-12-28T02:04:39.323Z,-1.74
2022-12-28T02:07:05.915Z,-1.77
2022-12-28T02:10:40.444Z,-1.72
2022-12-28T02:12:39.674Z,-1.66
2022-12-28T02:15:06.725Z,-1.62
2022-12-28T02:17:34.264Z,-1.63
2022-12-28T02:20:01.078Z,-1.61
2022-12-28T02:22:40.043Z,-1.62
2022-12-28T02:25:52.198Z,-1.64
2022-12-28T02:28:47.811Z,-1.60
2022-12-28T02:31:21.250Z,-1.52
2022-12-28T02:34:02.419Z,-1.49
2022-12-28T02:36:35.309Z,-1.49
2022-12-28T02:39:25.271Z,-1.45
2022-12-28T02:41:53.173Z,-1.49
2022-12-28T02:44:40.388Z,-1.50
2022-12-28T02:47:32.705Z,-1.56
2022-12-28T02:50:07.959Z,-1.59
2022-12-28T02:52:50.843Z,-1.56
2022-12-28T02:55:54.570Z,-1.55
2022-12-28T02:59:22.516Z,-1.56
2022-12-28T03:01:56.654Z,-1.64
2022-12-28T03:04:44.796Z,-1.70
2022-12-28T03:07:43.456Z,-1.75
2022-12-28T03:10:41.714Z,-1.81
2022-12-28T03:13:34.350Z,-1.84
2022-12-28T03:16:07.180Z,-1.97
2022-12-28T03:18:54.557Z,-2.06
2022-12-28T03:21:40.903Z,-2.09
2022-12-28T03:24:29.194Z,-2.13
2022-12-28T03:27:16.988Z,-2.16
2022-12-28T03:30:08.346Z,-2.21
2022-12-28T03:32:35.251Z,-2.27
2022-12-28T03:35:01.986Z,-2.32
2022-12-28T03:37:32.944Z,-2.35
2022-12-28T03:40:12.017Z,-2.35
2022-12-28T03:43:04.481Z,-2.33
2022-12-28T03:45:56.414Z,-2.33
2022-12-28T03:48:25.193Z,-2.37
2022-12-28T03:50:53.215Z,-2.42
2022-12-28T03:53:24.881Z,-2.47
2022-12-28T03:55:51.494Z,-2.56
2022-12-28T03:58:19.305Z,-2.58
2022-12-28T04:00:45.858Z,-2.61
2022-12-28T04:03:12.451Z,-2.64
2022-12-28T04:05:39.054Z,-2.75
2022-12-28T04:08:05.611Z,-2.84
2022-12-28T04:10:32.153Z,-2.93
2022-12-28T04:12:58.695Z,-3.00
2022-12-28T04:15:25.267Z,-3.02
2022-12-28T04:17:51.785Z,-3.05
2022-12-28T04:20:18.353Z,-3.08
2022-12-28T04:22:45.025Z,-3.08
2022-12-28T04:25:11.700Z,-3.07
2022-12-28T04:27:38.262Z,-3.07
2022-12-28T04:30:05.594Z,-3.09
2022-12-28T04:32:32.180Z,-3.11
2022-12-28T04:34:58.764Z,-3.12
2022-12-28T04:37:25.305Z,-3.15
2022-12-28T04:39:55.123Z,-3.20
2022-12-28T04:42:24.935Z,-3.24
2022-12-28T04:44:51.822Z,-3.24
2022-12-28T04:47:18.438Z,-3.25
2022-12-28T04:49:45.041Z,-3.25
2022-12-28T04:52:11.783Z,-3.27
2022-12-28T04:54:38.409Z,-3.33
2022-12-28T04:57:05.069Z,-3.47
2022-12-28T04:59:31.624Z,-3.52
2022-12-28T05:01:58.288Z,-3.57
2022-12-28T05:04:24.944Z,-3.63
2022-12-28T05:06:51.543Z,-3.67
2022-12-28T05:09:19.511Z,-3.70
2022-12-28T05:11:46.178Z,-3.69
2022-12-28T05:14:12.753Z,-3.67
2022-12-28T05:16:39.523Z,-3.73
2022-12-28T05:19:06.214Z,-3.72
2022-12-28T05:21:32.886Z,-3.74
2022-12-28T05:23:59.709Z,-3.74
2022-12-28T05:26:29.120Z,-3.80
2022-12-28T05:28:56.829Z,-3.82
2022-12-28T05:31:24.004Z,-3.74
2022-12-28T05:33:51.053Z,-3.73
2022-12-28T05:36:24.303Z,-3.65
2022-12-28T05:38:52.696Z,-3.67
2022-12-28T05:41:25.860Z,-3.71
2022-12-28T05:43:52.833Z,-3.78
2022-12-28T05:46:32.402Z,-3.85
2022-12-28T05:48:59.987Z,-3.91
2022-12-28T05:51:31.434Z,-3.93
2022-12-28T05:54:00.050Z,-3.97
2022-12-28T05:56:29.318Z,-3.98
2022-12-28T05:58:58.736Z,-3.99
2022-12-28T06:01:28.391Z,-4.00
2022-12-28T06:03:57.781Z,-4.01
2022-12-28T06:06:25.427Z,-4.03
2022-12-28T06:08:52.452Z,-4.05
2022-12-28T06:11:24.701Z,-4.05
2022-12-28T06:13:52.042Z,-4.02
2022-12-28T06:16:21.400Z,-4.03
2022-12-28T06:18:49.011Z,-4.01
2022-12-28T06:21:30.032Z,-3.96
2022-12-28T06:24:01.280Z,-3.97
2022-12-28T06:26:30.228Z,-3.94
2022-12-28T06:28:57.352Z,-3.88
2022-12-28T06:31:27.031Z,-3.91
2022-12-28T06:33:56.200Z,-3.93
2022-12-28T06:36:43.281Z,-3.94
2022-12-28T06:39:12.686Z,-3.96
2022-12-28T06:41:40.156Z,-3.98
2022-12-28T06:44:09.203Z,-3.96
2022-12-28T06:46:37.198Z,-4.03
2022-12-28T06:49:03.990Z,-4.12
2022-12-28T06:51:38.704Z,-4.16
2022-12-28T06:54:05.423Z,-4.20
2022-12-28T06:56:34.148Z,-4.21
2022-12-28T06:59:03.642Z,-4.18
2022-12-28T07:01:38.963Z,-4.13
2022-12-28T07:04:07.870Z,-4.10
2022-12-28T07:06:37.919Z,-4.04
2022-12-28T07:09:07.360Z,-3.98
2022-12-28T07:11:34.146Z,-3.91
2022-12-28T07:14:00.751Z,-3.84
2022-12-28T07:18:55.935Z,-3.81
2022-12-28T07:21:28.516Z,-3.81
2022-12-28T07:23:56.206Z,-3.80
2022-12-28T07:26:25.805Z,-3.76
2022-12-28T07:28:55.061Z,-3.69
2022-12-28T07:31:30.739Z,-3.63
2022-12-28T07:33:59.380Z,-3.56
2022-12-28T07:36:28.042Z,-3.47
2022-12-28T07:38:55.058Z,-3.36
2022-12-28T07:41:28.070Z,-3.24
2022-12-28T07:43:55.028Z,-3.12
2022-12-28T07:46:24.460Z,-2.99
2022-12-28T07:48:51.889Z,-2.84
2022-12-28T07:51:22.906Z,-2.70
2022-12-28T07:53:51.657Z,-2.50
2022-12-28T07:56:19.760Z,-2.35
2022-12-28T07:58:51.792Z,-2.19
2022-12-28T08:01:20.240Z,-1.96
2022-12-28T08:03:47.394Z,-1.66
2022-12-28T08:06:19.964Z,-1.32
2022-12-28T08:08:48.885Z,-1.08
2022-12-28T08:11:18.388Z,-0.86
2022-12-28T08:13:47.395Z,-0.55
2022-12-28T08:16:15.601Z,-0.22
2022-12-28T08:18:42.651Z,0.12
2022-12-28T08:21:13.743Z,0.59
2022-12-28T08:23:40.704Z,1.06
2022-12-28T08:26:09.268Z,1.58
2022-12-28T08:28:36.623Z,2.03
2022-12-28T08:31:14.997Z,2.55
2022-12-28T08:33:42.515Z,3.04
2022-12-28T08:36:10.436Z,3.47
2022-12-28T08:38:38.451Z,3.73
2022-12-28T08:41:07.651Z,4.07
2022-12-28T08:43:34.903Z,4.39
2022-12-28T08:46:04.211Z,4.67
2022-12-28T08:48:31.279Z,4.86
2022-12-28T08:51:06.938Z,5.01
2022-12-28T08:53:33.868Z,5.19
2022-12-28T08:56:14.844Z,5.56
2022-12-28T08:58:43.343Z,5.97
2022-12-28T09:01:19.859Z,6.45
2022-12-28T09:03:49.422Z,6.86
2022-12-28T09:06:18.990Z,7.32
2022-12-28T09:09:04.871Z,7.74
2022-12-28T09:11:32.326Z,8.29
2022-12-28T09:13:58.944Z,8.73
2022-12-28T09:16:27.852Z,8.80
2022-12-28T09:18:56.558Z,8.41
2022-12-28T09:21:25.558Z,8.26
2022-12-28T09:23:52.359Z,8.39
2022-12-28T09:26:21.105Z,8.30
2022-12-28T09:28:59.864Z,8.46
2022-12-28T09:31:29.515Z,8.68
2022-12-28T09:36:49.205Z,8.53
2022-12-28T09:39:18.980Z,8.28
2022-12-28T09:41:49.262Z,8.17
2022-12-28T09:44:34.598Z,8.17
2022-12-28T09:47:12.565Z,8.30
2022-12-28T09:49:44.922Z,8.57
2022-12-28T09:52:14.396Z,8.90
2022-12-28T09:54:41.838Z,9.38
2022-12-28T09:57:15.266Z,9.99
2022-12-28T09:59:42.340Z,10.37
2022-12-28T10:02:33.759Z,10.36
2022-12-28T10:05:00.406Z,10.86
2022-12-28T10:07:27.002Z,11.61
2022-12-28T10:09:53.826Z,12.40
2022-12-28T10:12:24.392Z,13.19
2022-12-28T10:14:53.145Z,13.75
2022-12-28T10:17:26.708Z,14.28
2022-12-28T10:19:56.725Z,14.28
2022-12-28T10:22:25.562Z,13.36
2022-12-28T10:24:52.963Z,13.62
2022-12-28T10:27:30.968Z,13.93
2022-12-28T10:30:01.600Z,14.41
2022-12-28T10:32:48.808Z,14.64
2022-12-28T10:35:49.215Z,15.09
2022-12-28T10:38:24.422Z,15.99
2022-12-28T10:41:07.008Z,16.27
2022-12-28T10:43:36.851Z,15.78
2022-12-28T10:46:07.499Z,15.41
2022-12-28T10:48:39.262Z,14.94
2022-12-28T10:51:18.569Z,14.40
2022-12-28T10:53:47.735Z,13.94
2022-12-28T10:56:14.246Z,13.63
2022-12-28T10:58:42.858Z,12.86
2022-12-28T11:01:30.216Z,12.37
2022-12-28T11:03:56.957Z,11.97
2022-12-28T11:06:35.700Z,11.53
2022-12-28T11:09:20.670Z,11.18
2022-12-28T11:11:49.802Z,10.71
2022-12-28T11:14:30.814Z,10.42
2022-12-28T11:16:58.166Z,10.14
2022-12-28T11:19:25.990Z,9.88
2022-12-28T11:21:53.480Z,9.54
2022-12-28T11:24:25.663Z,9.26
2022-12-28T11:26:52.670Z,9.12
2022-12-28T11:29:19.713Z,8.98
2022-12-28T11:31:55.294Z,8.73
2022-12-28T11:34:26.750Z,8.81
2022-12-28T11:36:53.963Z,8.97
2022-12-28T11:39:26.572Z,9.87
2022-12-28T11:42:28.011Z,11.05
2022-12-28T11:44:48.930Z,12.28
2022-12-28T11:47:15.458Z,13.11
2022-12-28T11:49:43.549Z,13.98
2022-12-28T11:52:15.867Z,14.68
2022-12-28T11:54:55.544Z,15.23
2022-12-28T11:57:35.604Z,15.83
2022-12-28T12:00:22.180Z,16.36
2022-12-28T12:02:58.042Z,16.90
2022-12-28T12:05:39.486Z,17.12
2022-12-28T12:08:12.117Z,17.26
2022-12-28T12:10:41.601Z,17.10
2022-12-28T12:13:26.479Z,17.00
2022-12-28T12:16:04.125Z,17.00
2022-12-28T12:18:46.176Z,17.32
2022-12-28T12:21:22.193Z,17.50
2022-12-28T12:23:52.780Z,16.69
2022-12-28T12:26:29.607Z,15.57
2022-12-28T12:29:02.747Z,14.50
2022-12-28T12:31:35.541Z,13.82
2022-12-28T12:34:24.202Z,13.11
2022-12-28T12:37:11.271Z,12.40
2022-12-28T12:39:56.295Z,11.64
2022-12-28T12:42:31.921Z,11.26
2022-12-28T12:45:22.945Z,10.88
2022-12-28T12:47:58.281Z,10.55
2022-12-28T12:50:46.999Z,10.33
2022-12-28T12:53:16.544Z,10.16
2022-12-28T12:56:10.325Z,10.02
2022-12-28T12:58:55.424Z,9.93
2022-12-28T13:01:24.711Z,9.89
2022-12-28T13:03:53.915Z,9.96
2022-12-28T13:06:24.473Z,10.05
2022-12-28T13:09:05.413Z,10.02
2022-12-28T13:11:37.589Z,9.85
2022-12-28T13:14:05.409Z,9.87
2022-12-28T13:16:32.685Z,9.94
2022-12-28T13:19:00.718Z,10.13
2022-12-28T13:21:29.868Z,10.34
2022-12-28T13:23:57.499Z,10.57
2022-12-28T13:26:29.580Z,11.03
2022-12-28T13:28:58.493Z,11.54
2022-12-28T13:31:36.168Z,11.73
2022-12-28T13:34:23.475Z,11.24
2022-12-28T13:36:56.780Z,10.81
2022-12-28T13:39:28.309Z,10.72
2022-12-28T13:41:57.858Z,10.53
2022-12-28T13:44:42.906Z,10.53
2022-12-28T13:47:15.927Z,10.90
2022-12-28T13:49:49.628Z,11.24
2022-12-28T13:52:23.227Z,11.49
2022-12-28T13:54:55.366Z,11.51
2022-12-28T14:00:11.252Z,10.90
2022-12-28T14:02:41.522Z,10.55
2022-12-28T14:05:15.312Z,10.24
2022-12-28T14:07:42.225Z,9.95
2022-12-28T14:10:11.000Z,9.56
2022-12-28T14:12:38.893Z,9.46
2022-12-28T14:15:07.111Z,9.42
2022-12-28T14:17:34.947Z,9.30
2022-12-28T14:20:01.684Z,9.19
2022-12-28T14:22:36.078Z,9.22
2022-12-28T14:25:08.943Z,9.16
2022-12-28T14:27:39.863Z,9.09
2022-12-28T14:30:08.857Z,8.98
2022-12-28T14:32:42.396Z,8.73
2022-12-28T14:35:18.242Z,8.58
2022-12-28T14:37:46.599Z,8.50
2022-12-28T14:40:26.452Z,8.32
2022-12-28T14:42:54.871Z,8.17
2022-12-28T14:46:07.614Z,8.04
2022-12-28T14:48:38.298Z,7.79
2022-12-28T14:51:17.686Z,7.61
2022-12-28T14:53:45.563Z,7.54
2022-12-28T14:56:18.706Z,7.41
2022-12-28T14:58:58.623Z,7.27
2022-12-28T15:01:44.982Z,7.09
2022-12-28T15:04:39.537Z,6.83
2022-12-28T15:07:09.185Z,6.68
2022-12-28T15:09:36.626Z,6.55
2022-12-28T15:12:20.493Z,6.38
2022-12-28T15:14:47.579Z,6.26
2022-12-28T15:17:14.215Z,6.16
2022-12-28T15:19:42.783Z,6.00
2022-12-28T15:22:09.481Z,5.80
2022-12-28T15:24:36.323Z,5.72
2022-12-28T15:27:03.497Z,5.58
2022-12-28T15:32:16.773Z,5.36
2022-12-28T15:34:43.383Z,5.20
2022-12-28T15:37:09.922Z,5.06
2022-12-28T15:39:36.757Z,5.00
2022-12-28T15:42:03.447Z,4.88
2022-12-28T15:44:30.002Z,4.73
2022-12-28T15:46:56.644Z,4.56
2022-12-28T15:49:23.267Z,4.44
2022-12-28T15:51:49.992Z,4.38
2022-12-28T15:54:16.669Z,4.33
2022-12-28T15:56:43.255Z,4.34
2022-12-28T15:59:14.425Z,4.28
2022-12-28T16:01:43.412Z,4.22
2022-12-28T16:04:10.729Z,4.19
2022-12-28T16:06:43.830Z,4.14
2022-12-28T16:09:12.017Z,4.08
2022-12-28T16:11:38.591Z,4.11
2022-12-28T16:14:07.251Z,4.11
2022-12-28T16:16:38.426Z,4.08
2022-12-28T16:19:06.911Z,4.08
2022-12-28T16:21:33.799Z,4.09
2022-12-28T16:24:00.612Z,4.13
2022-12-28T16:26:28.026Z,4.13
2022-12-28T16:28:54.665Z,4.14
2022-12-28T16:31:32.598Z,4.13
2022-12-28T16:34:07.844Z,4.12
2022-12-28T16:36:34.998Z,4.08
2022-12-28T16:39:04.629Z,4.11
2022-12-28T16:41:36.482Z,4.10
2022-12-28T16:44:12.307Z,4.06
2022-12-28T16:46:39.073Z,4.05
2022-12-28T16:49:05.695Z,3.98
2022-12-28T16:51:32.543Z,3.96
2022-12-28T16:53:59.110Z,3.99
2022-12-28T16:56:25.886Z,3.96
2022-12-28T16:58:56.820Z,3.81
2022-12-28T17:01:23.783Z,3.77
2022-12-28T17:03:51.918Z,3.71
2022-12-28T17:06:19.076Z,3.69
2022-12-28T17:08:45.711Z,3.59
2022-12-28T17:11:12.737Z,3.59
2022-12-28T17:13:39.595Z,3.57
2022-12-28T17:16:07.031Z,3.46
2022-12-28T17:18:33.770Z,3.38
2022-12-28T17:21:04.902Z,3.31
2022-12-28T17:23:33.527Z,3.30
2022-12-28T17:26:00.101Z,3.34
2022-12-28T17:28:26.740Z,3.26
2022-12-28T17:31:06.744Z,3.19
2022-12-28T17:33:38.936Z,3.12
2022-12-28T17:36:06.757Z,3.09
2022-12-28T17:38:33.300Z,3.06
2022-12-28T17:40:59.847Z,3.06
2022-12-28T17:43:26.413Z,3.04
2022-12-28T17:45:54.620Z,3.04
2022-12-28T17:48:26.958Z,3.01
2022-12-28T17:50:53.569Z,3.00
2022-12-28T17:53:20.096Z,2.96
2022-12-28T17:55:46.847Z,2.92
2022-12-28T17:58:13.421Z,2.84
2022-12-28T18:00:39.984Z,2.82
2022-12-28T18:03:06.685Z,2.84
2022-12-28T18:05:34.601Z,2.88
2022-12-28T18:08:01.186Z,2.91
2022-12-28T18:10:27.787Z,2.89
2022-12-28T18:12:55.687Z,2.87
2022-12-28T18:15:22.270Z,2.81
2022-12-28T18:17:48.887Z,2.71
2022-12-28T18:20:16.158Z,2.63
2022-12-28T18:22:42.710Z,2.52
2022-12-28T18:25:09.651Z,2.42
2022-12-28T18:27:36.725Z,2.39
2022-12-28T18:30:03.796Z,2.38
2022-12-28T18:32:30.387Z,2.35
2022-12-28T18:34:56.993Z,2.31
2022-12-28T18:37:23.586Z,2.25
2022-12-28T18:39:50.130Z,2.23
2022-12-28T18:42:18.419Z,2.17
2022-12-28T18:44:46.266Z,2.14
2022-12-28T18:47:13.520Z,2.07
2022-12-28T18:49:45.480Z,1.98
2022-12-28T18:52:15.069Z,1.83
2022-12-28T18:54:41.739Z,1.70
2022-12-28T18:57:09.086Z,1.57
2022-12-28T18:59:35.888Z,1.41
2022-12-28T19:02:06.954Z,1.24
2022-12-28T19:04:35.189Z,1.18
2022-12-28T19:07:01.872Z,1.07
2022-12-28T19:09:28.444Z,0.96
2022-12-28T19:11:55.490Z,0.89
2022-12-28T19:14:22.205Z,0.86
2022-12-28T19:16:48.763Z,0.84
2022-12-28T19:19:17.222Z,0.90
2022-12-28T19:21:44.111Z,0.98
2022-12-28T19:24:18.714Z,1.07
2022-12-28T19:26:46.785Z,1.03
2022-12-28T19:29:15.508Z,0.99
2022-12-28T19:31:42.339Z,0.91
2022-12-28T19:34:09.048Z,0.87
2022-12-28T19:36:35.574Z,0.74
2022-12-28T19:39:02.157Z,0.60
2022-12-28T19:41:28.764Z,0.53
2022-12-28T19:43:55.482Z,0.55
2022-12-28T19:46:31.139Z,0.56
2022-12-28T19:49:02.143Z,0.50
2022-12-28T19:51:31.722Z,0.51
2022-12-28T19:54:00.960Z,0.55
2022-12-28T19:56:27.704Z,0.47
2022-12-28T19:58:59.456Z,0.35
2022-12-28T20:01:30.352Z,0.07
2022-12-28T20:03:57.228Z,-0.10
2022-12-28T20:06:27.150Z,-0.21
2022-12-28T20:09:01.902Z,-0.30
2022-12-28T20:11:29.060Z,-0.43
2022-12-28T20:14:02.110Z,-0.52
2022-12-28T20:16:30.954Z,-0.63
2022-12-28T20:18:57.667Z,-0.66
2022-12-28T20:21:25.824Z,-0.72
2022-12-28T20:23:54.119Z,-0.84
2022-12-28T20:26:22.460Z,-1.00
2022-12-28T20:28:50.103Z,-1.09
2022-12-28T20:31:16.768Z,-1.13
2022-12-28T20:33:44.116Z,-1.19
2022-12-28T20:36:22.144Z,-1.26
2022-12-28T20:38:49.320Z,-1.26
2022-12-28T20:41:38.960Z,-1.26
2022-12-28T20:44:11.754Z,-1.31
2022-12-28T20:46:38.517Z,-1.39
2022-12-28T20:49:05.632Z,-1.43
2022-12-28T20:51:32.534Z,-1.51
2022-12-28T20:53:59.115Z,-1.54
2022-12-28T20:56:25.833Z,-1.57
2022-12-28T20:58:52.352Z,-1.63
2022-12-28T21:01:19.476Z,-1.65
2022-12-28T21:03:46.477Z,-1.67
2022-12-28T21:06:13.394Z,-1.68
2022-12-28T21:08:40.412Z,-1.72
2022-12-28T21:11:07.128Z,-1.73
2022-12-28T21:13:34.697Z,-1.77
2022-12-28T21:16:06.087Z,-1.81
2022-12-28T21:18:33.355Z,-1.87
2022-12-28T21:21:00.304Z,-1.93
2022-12-28T21:23:28.082Z,-1.97
2022-12-28T21:26:06.605Z,-2.03
2022-12-28T21:28:34.895Z,-2.05
2022-12-28T21:31:03.818Z,-2.06
2022-12-28T21:33:31.779Z,-2.08
2022-12-28T21:36:06.456Z,-2.09
2022-12-28T21:38:33.123Z,-2.12
2022-12-28T21:41:06.598Z,-2.19
2022-12-28T21:43:33.466Z,-2.28
2022-12-28T21:46:03.256Z,-2.28
2022-12-28T21:48:35.645Z,-2.27
2022-12-28T21:51:28.269Z,-2.30
2022-12-28T21:53:55.376Z,-2.35
2022-12-28T21:56:22.188Z,-2.32
2022-12-28T21:58:50.031Z,-2.33
2022-12-28T22:01:35.648Z,-2.35
2022-12-28T22:04:23.294Z,-2.34
2022-12-28T22:06:49.880Z,-2.39
2022-12-28T22:09:34.860Z,-2.39
2022-12-28T22:12:20.030Z,-2.39
2022-12-28T22:14:46.481Z,-2.43
2022-12-28T22:17:14.687Z,-2.48
2022-12-28T22:19:41.636Z,-2.51
2022-12-28T22:22:08.283Z,-2.56
2022-12-28T22:24:34.876Z,-2.60
2022-12-28T22:27:01.465Z,-2.62
2022-12-28T22:29:28.043Z,-2.74
2022-12-28T22:31:54.741Z,-2.75
2022-12-28T22:34:21.433Z,-2.77
2022-12-28T22:36:48.055Z,-2.83
2022-12-28T22:39:14.676Z,-2.83
2022-12-28T22:41:41.243Z,-2.89
2022-12-28T22:44:09.840Z,-2.92
2022-12-28T22:46:36.456Z,-2.94
2022-12-28T22:49:03.170Z,-2.94
2022-12-28T22:51:29.826Z,-2.92
2022-12-28T22:53:56.363Z,-2.99
2022-12-28T22:56:22.975Z,-3.01
2022-12-28T22:58:49.515Z,-3.06
2022-12-28T23:01:18.667Z,-3.09
2022-12-28T23:03:47.270Z,-3.10
2022-12-28T23:06:16.667Z,-3.13
2022-12-28T23:08:43.456Z,-3.17
2022-12-28T23:11:34.021Z,-3.19
2022-12-28T23:14:21.357Z,-3.20
2022-12-28T23:16:48.548Z,-3.25
2022-12-28T23:19:34.837Z,-3.26
2022-12-28T23:22:21.416Z,-3.25
2022-12-28T23:25:06.376Z,-3.27
2022-12-28T23:27:39.614Z,-3.29
2022-12-28T23:30:09.781Z,-3.27
2022-12-28T23:32:36.375Z,-3.23
2022-12-28T23:35:03.986Z,-3.19
2022-12-28T23:37:31.176Z,-3.22
2022-12-28T23:39:57.754Z,-3.27
2022-12-28T23:42:24.317Z,-3.37
2022-12-28T23:44:50.862Z,-3.37
2022-12-28T23:47:18.644Z,-3.37
2022-12-28T23:49:45.664Z,-3.40
2022-12-28T23:52:12.859Z,-3.41
2022-12-28T23:54:39.500Z,-3.48
2022-12-28T23:57:06.163Z,-3.53
2022-12-28T23:59:32.737Z,-3.51
